Bei Facebook empfehlenBei Twitter postenGoogle plusPinterest

Das Wetter im Erzgebirge am 01.06.2015

Wetter und Klima am 01.06.2015 Holzhau im Erzgebirge (630m ü.NN)
Letzte gemessene Temperatur und Uhrzeit der Messung23:45:00 Uhr7.30 °C
Temperatur (Maximum / Höchstwert) und Uhrzeit der Messung14:15:00 Uhr21.90 °C
Temperatur (Minimum / Tiefstwert) und Uhrzeit der Messung23:45:007.30 °C
Errechneter Absolutwert der Temperaturschwankungen zwischen Tmin und Tmax des Tages14.60 K
Errechnete Tagesmitteltemperatur13.86354 °C
Gesamt - Niederschlag des Tages (in flüssiger Form)1.55 Liter / m²
Luftdruck (Maximum / Höchstwert) und Zeitpunkt der Messung19:45:00 Uhr1016.40 hPa
Luftdruck (Minimum / Tiefstwert) und Zeitpunkt der Messung06:15:00 Uhr1012.80 hPa
Errechneter Absolutwert der Luftdruckschwankungen des Tages3.60 hPa
Höchste gemessene Windgeschwindigkeit und Uhrzeit der Messung17:45:00 Uhr24.12 km/h
Errechnete Windhäufigkeit in Relation zu den Messwerten des Tages14.58333 %
Niedrigste Windkühle (Windchill) und Zeitpunkt der Messung23:45:00 Uhr7.30 °C
Taupunkt (Maximum / Höchstwert) und Uhrzeit der Messung17:00:00 Uhr14.60 °C
Taupunkt (Minimum / Tiefstwert) und Uhrzeit der Messung23:45:005.90 °C
Anzahl der automatisch eingelesenen Messwerte 96

Detaillierte Wetter- und Klima- Messwerte für den 01.06.2015 in Holzhau im Erzgebirge (630m ü.NN)
ZeitTemperaturLuftdruckRel. LuftfeuchteWindWindrichtungWindchillTaupunktNiederschlag l/m²
23:45:007.30 °C1015.30 hPa91.00 %5.90 °C1.55
23:30:007.80 °C1015.30 hPa91.00 %6.40 °C1.55
23:15:008.10 °C1015.20 hPa91.00 %6.70 °C1.55
23:00:008.40 °C1015.20 hPa91.00 %7.00 °C1.55
22:45:008.60 °C1015.20 hPa91.00 %7.20 °C1.55
22:30:008.80 °C1015.10 hPa91.00 %7.40 °C1.55
22:15:008.80 °C1014.80 hPa90.00 %7.30 °C1.55
22:00:008.90 °C1015.10 hPa90.00 %7.40 °C1.55
21:45:008.90 °C1015.30 hPa89.00 %7.20 °C1.55
21:30:009.30 °C1015.30 hPa89.00 %7.60 °C1.55
21:15:009.60 °C1015.20 hPa90.00 %8.00 °C1.55
21:00:009.80 °C1015.60 hPa90.00 %8.20 °C1.55
20:45:009.80 °C1015.70 hPa90.00 %8.20 °C1.55
20:30:009.80 °C1015.80 hPa90.00 %8.20 °C1.55
20:15:009.60 °C1015.90 hPa90.00 %8.00 °C1.55
20:00:009.70 °C1015.90 hPa89.00 %8.00 °C1.55
19:45:009.90 °C1016.40 hPa89.00 %8.20 °C1.55
19:30:0010.30 °C1016.20 hPa89.00 %8.60 °C1.55
19:15:0010.60 °C1016.00 hPa88.00 %8.70 °C1.55
19:00:0011.00 °C1016.10 hPa88.00 %9.10 °C1.55
18:45:0011.40 °C1016.00 hPa87.00 %9.30 °C1.55
18:30:0011.90 °C1015.80 hPa86.00 %9.60 °C1.55
18:15:0012.70 °C1015.80 hPa85.00 %10.20 °C1.55
18:00:0014.40 °C1015.20 hPa83.00 %11.60 °C1.55
17:45:0016.70 °C1014.70 hPa81.00 %24.12 km/hW15.60 °C13.40 °C1.03
17:30:0017.60 °C1014.10 hPa81.00 %14.30 °C1.03
17:15:0017.60 °C1014.10 hPa82.00 %14.50 °C1.03
17:00:0017.50 °C1014.30 hPa83.00 %14.60 °C1.03
16:45:0016.60 °C1014.30 hPa84.00 %13.90 °C1.03
16:30:0016.30 °C1014.30 hPa81.00 %13.00 °C1.03
16:15:0017.10 °C1014.50 hPa80.00 %13.60 °C1.03
16:00:0017.60 °C1014.60 hPa80.00 %14.10 °C1.03
15:45:0017.10 °C1014.50 hPa83.00 %14.20 °C1.03
15:30:0016.20 °C1014.80 hPa81.00 %12.90 °C1.03
15:15:0016.90 °C1014.50 hPa75.00 %12.40 °C1.03
15:00:0018.80 °C1014.50 hPa68.00 %12.80 °C 
14:45:0020.60 °C1014.50 hPa61.00 %12.80 °C 
14:30:0021.70 °C1014.40 hPa62.00 %14.10 °C 
14:15:0021.90 °C1014.60 hPa62.00 %14.30 °C 
14:00:0020.80 °C1014.60 hPa65.00 %14.00 °C 
13:45:0019.60 °C1014.70 hPa67.00 %13.30 °C 
13:30:0019.20 °C1014.60 hPa67.00 %12.90 °C 
13:15:0018.80 °C1014.70 hPa67.00 %12.50 °C 
13:00:0018.90 °C1014.60 hPa67.00 %12.60 °C 
12:45:0017.90 °C1014.60 hPa70.00 %12.40 °C 
12:30:0017.10 °C1014.70 hPa69.00 %6.84 km/hSW17.50 °C11.40 °C 
12:15:0017.80 °C1014.60 hPa66.00 %7.56 km/hSW18.20 °C11.40 °C 
12:00:0019.10 °C1014.50 hPa64.00 %4.68 km/hS19.10 °C12.10 °C 
11:45:0019.60 °C1014.40 hPa63.00 %5.76 km/hSW20.50 °C12.40 °C 
11:30:0018.30 °C1014.30 hPa66.00 %11.80 °C 
11:15:0018.40 °C1014.30 hPa64.00 %11.50 °C 
11:00:0019.10 °C1014.30 hPa62.00 %11.70 °C 
10:45:0018.50 °C1014.20 hPa67.00 %22.68 km/hWNW18.00 °C12.30 °C 
10:30:0017.60 °C1014.30 hPa66.00 %11.20 °C 
10:15:0018.00 °C1014.20 hPa64.00 %11.10 °C 
10:00:0018.60 °C1014.00 hPa63.00 %3.24 km/hNW18.60 °C11.40 °C 
09:45:0018.40 °C1014.00 hPa62.00 %11.00 °C 
09:30:0019.10 °C1013.90 hPa62.00 %4.68 km/hWSW19.10 °C11.70 °C 
09:15:0018.90 °C1013.80 hPa62.00 %3.96 km/hSW18.90 °C11.50 °C 
09:00:0019.50 °C1013.70 hPa62.00 %12.00 °C 
08:45:0018.20 °C1013.60 hPa66.00 %12.96 km/hSW18.20 °C11.70 °C 
08:30:0016.80 °C1013.60 hPa67.00 %3.60 km/hSW16.80 °C10.60 °C 
08:15:0016.70 °C1013.60 hPa67.00 %6.84 km/hSSW17.00 °C10.50 °C 
08:00:0016.80 °C1013.50 hPa66.00 %8.64 km/hSW16.90 °C10.40 °C 
07:45:0016.50 °C1013.40 hPa68.00 %10.60 °C 
07:30:0016.10 °C1013.40 hPa67.00 %10.00 °C 
07:15:0016.10 °C1013.20 hPa69.00 %10.40 °C 
07:00:0015.80 °C1013.30 hPa70.00 %10.30 °C 
06:45:0015.10 °C1013.10 hPa72.00 %4.32 km/hSW15.10 °C10.10 °C 
06:30:0014.10 °C1013.00 hPa75.00 %9.70 °C 
06:15:0013.90 °C1012.80 hPa76.00 %9.70 °C 
06:00:0013.60 °C1012.90 hPa79.00 %10.00 °C 
05:45:0012.90 °C1012.90 hPa81.00 %9.70 °C 
05:30:0011.80 °C1012.90 hPa83.00 %9.00 °C 
05:15:0011.50 °C1012.90 hPa85.00 %9.10 °C 
05:00:0010.40 °C1012.90 hPa86.00 %8.20 °C 
04:45:0010.20 °C1012.90 hPa85.00 %7.80 °C 
04:30:0010.00 °C1013.00 hPa85.00 %7.60 °C 
04:15:009.80 °C1013.00 hPa85.00 %7.40 °C 
04:00:009.60 °C1013.10 hPa85.00 %7.20 °C 
03:45:009.30 °C1013.00 hPa84.00 %6.70 °C 
03:30:009.20 °C1013.00 hPa82.00 %6.30 °C 
03:15:009.90 °C1013.10 hPa81.00 %6.80 °C 
03:00:0010.80 °C1013.40 hPa80.00 %7.50 °C 
02:45:0010.90 °C1013.30 hPa81.00 %7.80 °C 
02:30:0010.80 °C1013.20 hPa82.00 %7.90 °C 
02:15:0010.30 °C1013.20 hPa82.00 %7.40 °C 
02:00:009.90 °C1013.20 hPa83.00 %7.20 °C 
01:45:009.30 °C1013.10 hPa84.00 %6.70 °C 
01:30:008.90 °C1013.10 hPa83.00 %6.20 °C 
01:15:009.00 °C1013.10 hPa82.00 %6.10 °C 
01:00:009.10 °C1013.30 hPa82.00 %6.20 °C 
00:45:009.20 °C1013.10 hPa81.00 %6.10 °C 
00:30:009.40 °C1013.20 hPa79.00 %5.90 °C 
00:15:009.80 °C1013.40 hPa78.00 %6.20 °C 
00:00:0010.40 °C1013.40 hPa78.00 %6.70 °C 

Permanenter Link zu dieser Seite: Wetter im Erzgebirge am 01.06.2015
Performance-Info: Die Erstellung der Seite / Statistik(en) / Tabelle(n) erforderte 5 Datenbankserver-Abfrage(n) und dauerte 111 Millisekunden. (Dieser Messwert ist von der Gesamt-Auslastung des Servers abhängig.)
Erzgebirge - Wetter | Erzgebirge - Wetter (Mobilgeräte) | Komplette Klimadatenbank